INFORMACIÓN METAR y TAF
METAR FOR LIMC
ADDS - METARS form results

(1133 UTC 17 February 2019)
Data provider http://aviationweather.gov/metar/data/
 
METAR text: LIMC 171120Z 22005KT 190V260 CAVOK 14/01 Q1028 NOSIG
Conditions at: LIMC (MILANO/MALPENSA , IT) observed 1120 UTC 17 February 2019
Temperature: 14.0°C (57°F)
Dewpoint: 1.0°C (34°F) [RH = 41%]
Pressure (altimeter): 30.35 inches Hg (1028.0 mb)
Winds: from the SW (220 degrees) at 6 MPH (5 knots; 2.6 m/s)
Visibility: 6 or more miles (10+ km)
Ceiling: ceiling and visibility are OK
Clouds: unknown
Weather: no significant weather observed at this time

METAR text: LIMC 171050Z 32003KT 230V020 CAVOK 13/M01 Q1028 NOSIG
Conditions at: LIMC (MILANO/MALPENSA , IT) observed 1050 UTC 17 February 2019
Temperature: 13.0°C (55°F)
Dewpoint: -1.0°C (30°F) [RH = 38%]
Pressure (altimeter): 30.35 inches Hg (1028.0 mb)
Winds: from the NW (320 degrees) at 3 MPH (3 knots; 1.5 m/s)
Visibility: 6 or more miles (10+ km)
Ceiling: ceiling and visibility are OK
Clouds: unknown
Weather: no significant weather observed at this time

Forecast for: LIMC (MILANO/MALPENSA , IT)
Text: TAF LIMC 171100Z 1712/1818 VRB05KT CAVOK
Forecast period: 1200 UTC 17 February 2019 to 1800 UTC 18 February 2019
Forecast type: FROM: standard forecast or significant change
Winds: variable direction winds at 6 MPH (5 knots; 2.6 m/s)
Visibility: 6 or more miles 10+ km)
Ceiling: unknown
Clouds: missing
Weather: NSW  (no significant weather)
Text: TEMPO 1800/1808 3000 BCFG
Forecast period: 0000 to 0800 UTC 18 February 2019
Forecast type: TEMPORARY: The following changes expected for less than half the time period
Visibility: 1.86 miles (2.99 km)
Ceiling: unknown
Clouds: missing
Weather: BCFG  (patches of fog)

 MAPA DE AEROPUERTO

 INFORMACIÓN DE PISTA
Pista 17L Longitud 12861 ft Ancho 197 ft
Elevación 745 ft Umbral desplazado 3094 ft Rumbo de pista 170
Pista 35R Longitud 12861 ft Ancho 197 ft
Elevación 691 ft Umbral desplazado 0 ft Rumbo de pista 350
Pista 17R Longitud 12861 ft Ancho 197 ft
Elevación 764 ft Umbral desplazado 0 ft Rumbo de pista 170
Pista 35L Longitud 12861 ft Ancho 197 ft
Elevación 696 ft Umbral desplazado 1329 ft Rumbo de pista 350

 FRECUANCIAS DEL AEROPUERTO
Tipo APP Nombre MILANO APP Frecuencia 132.7 MHZ
Tipo ATIS Nombre ATIS Frecuencia 120.025 MHZ
Tipo CLD Nombre CLNC DEL Frecuencia 120.9 MHZ
Tipo DEP Nombre MILANO DEP Frecuencia 126.75 MHZ
Tipo GND Nombre GND Frecuencia 121.9 MHZ
Tipo TWR Nombre TWR Frecuencia 119 MHZ

 RADIO AYUDAS DEL AEROPUERTO
Tipo VOR-DME Nombre Malpensa Frecuencia 111200 KHZ
Tipo NDB Nombre Malpensa Frecuencia 364 KHZ



Powered by Virtual Airlines Manager [v2.6.2]